CheckWX is a tool to help pilots better visualize weather data.  It is not intended as a substitute for an official pre-flight weather briefing.

02:54:31 UTC

KJAU METAR
Campbell County Airport
Jacksboro, Tennessee, USA
Current

20 mins ago

KJAU 240235Z AUTO 00000KT 10SM CLR 04/M03 A3030 RMK A01
Observed
Mar-24 @ 02:35 UTC
Visibility
10 SM
Flight Rules
VFR
Cloud Levels
  • Clear skies
Temperature
C / 39°F
Dewpoint
-3°C / 27°F
Humidity
61%
Altimeter
30.3" Hg
Pressure
1026.12 hPa
Previous

40 mins ago

KJAU 240215Z AUTO 00000KT 10SM CLR 04/M03 A3030 RMK A01
Observed
Mar-24 @ 02:15 UTC
Visibility
10 SM
Flight Rules
VFR
Cloud Levels
  • Clear skies
Temperature
C / 39°F
Dewpoint
-3°C / 27°F
Humidity
61%
Altimeter
30.3" Hg
Pressure
1026.12 hPa
Previous

60 mins ago

KJAU 240155Z AUTO 00000KT 10SM CLR 07/M03 A3030 RMK A01
Observed
Mar-24 @ 01:55 UTC
Visibility
10 SM
Flight Rules
VFR
Cloud Levels
  • Clear skies
Temperature
C / 45°F
Dewpoint
-3°C / 27°F
Humidity
49%
Altimeter
30.3" Hg
Pressure
1026.12 hPa